This is the latest recevied weather packets stored in our database for station/object VE3VGJ. If no packets are shown the sender has not sent any weather packets the latest 10 day(s).
| Time | Temp. | Humidity | Pressure | Rain* | Wind** | Luminosity | Snow |
|---|---|---|---|---|---|---|---|
| 1778160627 | 8.33° C | 45% | 1012.6 hPa | 0 mm | - | 514 W/m² | - |
| 1778160323 | 8.33° C | 45% | 1012.4 hPa | 0 mm | - | 497 W/m² | - |
| 1778160019 | 8.33° C | 47% | 1012.7 hPa | 0 mm | - | 484 W/m² | - |
| 1778159716 | 8.33° C | 45% | 1012.6 hPa | 0 mm | - | 465 W/m² | - |
| 1778159413 | 8.33° C | 45% | 1012.7 hPa | 0 mm | - | 448 W/m² | - |
| 1778159110 | 7.78° C | 46% | 1012.6 hPa | 0 mm | - | 357 W/m² | - |
| 1778158809 | 7.78° C | 47% | 1012.7 hPa | 0 mm | - | 412 W/m² | - |
| 1778158507 | 7.78° C | 48% | 1012.6 hPa | 0 mm | - | 333 W/m² | - |
| 1778158203 | 7.78° C | 47% | 1012.7 hPa | 0 mm | - | 79 W/m² | - |
| 1778157900 | 7.22° C | 47% | 1012.3 hPa | 0 mm | - | 151 W/m² | - |
| 1778157598 | 7.22° C | 49% | 1012.3 hPa | 0 mm | - | 80 W/m² | - |
| 1778157295 | 7.78° C | 47% | 1012.6 hPa | 0 mm | - | 94 W/m² | - |
| 1778156991 | 7.78° C | 47% | 1012.4 hPa | 0 mm | - | 84 W/m² | - |
| 1778156687 | 7.78° C | 49% | 1012.4 hPa | 0 mm | - | 68 W/m² | - |
| 1778156383 | 6.67° C | 52% | 1012.3 hPa | 0 mm | - | 214 W/m² | - |
| 1778156079 | 7.22° C | 52% | 1012.5 hPa | 0 mm | - | 260 W/m² | - |
| 1778155775 | 6.67° C | 55% | 1012.4 hPa | 0 mm | - | 164 W/m² | - |
| 1778155472 | 6.67° C | 56% | 1012.7 hPa | 0 mm | - | 217 W/m² | - |
| 1778155168 | 6.67° C | 59% | 1012.6 hPa | 0 mm | - | 203 W/m² | - |
| 1778154864 | 6.67° C | 61% | 1012.5 hPa | 0 mm | - | 186 W/m² | - |
| 1778154560 | 6.11° C | 62% | 1012.5 hPa | 0 mm | - | 172 W/m² | - |
| 1778154257 | 5.56° C | 66% | 1012.5 hPa | 0 mm | - | 158 W/m² | - |
| 1778153954 | 5.56° C | 68% | 1012.4 hPa | 0 mm | - | 145 W/m² | - |
| 1778153651 | 5° C | 69% | 1012.5 hPa | 0 mm | - | 72 W/m² | - |
| 1778153349 | 5° C | 70% | 1012.5 hPa | 0 mm | - | 73 W/m² | - |
* Rain latest hour (hover to see other rain measurements)
** Current wind speed in m/s (hover to see current wind gust speed)